Time;durP1;ratioP1;P1;durP2;ratioP2;P2;SDS_P1;SDS_P2;PMS_P1;PMS_P2;Temp;Humidity;BMP_temperature;BMP_pressure;BME280_temperature;BME280_humidity;BME280_pressure;Samples;Min_cycle;Max_cycle;Signal;HPM_P1;HPM_P2
2020/12/12 00:00:48;;;;;;;20.10;14.93;;;1.90;94.40;;;;;;5044280;28;20230;-87
2020/12/12 00:03:14;;;;;;;19.23;14.00;;;1.90;94.40;;;;;;5045823;28;20213;-87
2020/12/12 00:05:41;;;;;;;19.07;13.27;;;2.00;94.50;;;;;;5051791;28;20635;-87
2020/12/12 00:08:08;;;;;;;19.03;13.67;;;2.10;94.50;;;;;;5050328;28;20719;-88
2020/12/12 00:10:35;;;;;;;19.70;14.10;;;2.00;94.40;;;;;;5052671;28;20209;-88
2020/12/12 00:13:01;;;;;;;23.07;15.03;;;1.90;94.40;;;;;;5064046;28;20288;-86
2020/12/12 00:15:28;;;;;;;22.40;14.53;;;1.80;94.40;;;;;;5053501;28;20213;-86
2020/12/12 00:17:55;;;;;;;20.80;14.73;;;1.80;94.40;;;;;;5055917;28;20260;-87
2020/12/12 00:20:21;;;;;;;24.97;14.77;;;1.80;94.40;;;;;;5059702;28;20539;-86
2020/12/12 00:22:47;;;;;;;19.47;13.90;;;1.90;94.40;;;;;;5055276;28;20218;-86
2020/12/12 00:25:14;;;;;;;20.60;14.30;;;1.90;94.40;;;;;;5061342;28;20232;-86
2020/12/12 00:27:41;;;;;;;21.33;14.07;;;1.90;94.40;;;;;;5048391;28;20494;-86
2020/12/12 00:30:07;;;;;;;20.67;14.17;;;1.90;94.40;;;;;;5057509;28;20201;-87
2020/12/12 00:32:34;;;;;;;19.67;13.63;;;1.90;94.40;;;;;;5053280;28;20221;-86
2020/12/12 00:35:00;;;;;;;21.40;15.03;;;1.90;94.40;;;;;;5055428;28;20202;-85
2020/12/12 00:37:27;;;;;;;23.33;14.90;;;1.90;94.40;;;;;;5057923;28;20228;-88
2020/12/12 00:39:53;;;;;;;19.93;14.30;;;1.90;94.40;;;;;;5062221;28;20721;-88
2020/12/12 00:42:20;;;;;;;19.70;14.40;;;1.90;94.40;;;;;;5065109;28;20591;-86
2020/12/12 00:44:48;;;;;;;22.03;15.00;;;1.90;94.40;;;;;;5051470;28;20213;-86
2020/12/12 00:47:14;;;;;;;19.97;13.90;;;1.80;94.40;;;;;;5044268;28;20251;-87
2020/12/12 00:49:41;;;;;;;21.70;14.77;;;1.90;94.40;;;;;;5045666;28;20739;-86
2020/12/12 00:52:07;;;;;;;21.57;15.23;;;1.80;94.50;;;;;;5043590;28;20226;-87
2020/12/12 00:54:34;;;;;;;22.43;14.20;;;1.80;94.60;;;;;;5047114;28;20305;-87
2020/12/12 00:57:01;;;;;;;20.03;13.90;;;1.80;94.80;;;;;;5043737;28;20719;-86
2020/12/12 00:59:27;;;;;;;21.87;15.00;;;1.90;94.50;;;;;;5051544;28;20228;-87
2020/12/12 01:01:55;;;;;;;18.80;13.90;;;1.90;94.40;;;;;;5045386;28;20222;-86
2020/12/12 01:04:21;;;;;;;24.47;14.77;;;1.80;94.60;;;;;;5047084;28;20654;-86
2020/12/12 01:06:48;;;;;;;21.33;13.90;;;1.80;94.50;;;;;;5046517;28;20228;-87
2020/12/12 01:09:14;;;;;;;20.83;14.93;;;1.80;94.90;;;;;;5048226;28;20214;-87
2020/12/12 01:11:40;;;;;;;20.30;14.07;;;1.80;94.80;;;;;;5046761;28;20224;-87
2020/12/12 01:14:07;;;;;;;20.60;14.77;;;1.90;94.40;;;;;;5044740;28;20301;-87
2020/12/12 01:16:34;;;;;;;22.07;14.97;;;1.90;94.80;;;;;;5048503;28;20422;-87
2020/12/12 01:19:01;;;;;;;19.00;13.47;;;1.90;94.40;;;;;;5048433;28;20202;-87
2020/12/12 01:21:27;;;;;;;19.37;13.67;;;1.90;94.50;;;;;;5042954;28;20225;-87
2020/12/12 01:23:54;;;;;;;21.57;14.17;;;1.90;94.40;;;;;;5050596;28;20210;-87
2020/12/12 01:26:20;;;;;;;20.07;14.33;;;1.90;94.40;;;;;;5047669;28;20225;-86
2020/12/12 01:28:46;;;;;;;20.67;13.80;;;1.90;94.40;;;;;;5049887;28;20211;-87
2020/12/12 01:31:14;;;;;;;23.00;14.83;;;1.90;94.40;;;;;;5049698;28;20304;-87
2020/12/12 01:33:40;;;;;;;19.13;13.90;;;1.90;94.60;;;;;;5044785;28;20221;-87
2020/12/12 01:36:08;;;;;;;18.80;13.60;;;1.80;94.40;;;;;;5051345;28;20240;-87
2020/12/12 01:38:35;;;;;;;19.47;14.73;;;1.90;94.40;;;;;;5049951;28;20209;-87
2020/12/12 01:41:02;;;;;;;19.90;13.87;;;1.90;94.40;;;;;;5041707;28;20210;-87
2020/12/12 01:43:28;;;;;;;20.03;13.63;;;1.90;94.40;;;;;;5042459;28;20557;-87
2020/12/12 01:45:54;;;;;;;22.23;14.60;;;2.00;94.50;;;;;;5042968;28;20209;-87
2020/12/12 01:48:21;;;;;;;18.27;13.40;;;1.90;94.40;;;;;;5049366;28;20601;-87
2020/12/12 01:50:47;;;;;;;18.93;13.27;;;1.90;94.40;;;;;;5050038;28;20251;-87
2020/12/12 01:53:17;;;;;;;18.63;13.20;;;2.00;94.40;;;;;;5046896;28;20251;-87
2020/12/12 01:55:47;;;;;;;19.47;13.27;;;2.00;94.40;;;;;;5043907;28;20288;-86
2020/12/12 01:58:14;;;;;;;18.17;13.23;;;2.00;94.50;;;;;;5034751;28;20295;-87
2020/12/12 02:00:40;;;;;;;17.03;12.00;;;2.00;94.40;;;;;;5048775;28;20230;-88
2020/12/12 02:03:09;;;;;;;17.80;12.73;;;2.10;94.50;;;;;;5052784;28;20232;-87
2020/12/12 02:05:39;;;;;;;17.20;12.37;;;2.00;94.50;;;;;;5053789;28;20214;-87
2020/12/12 02:08:10;;;;;;;17.63;12.97;;;2.10;94.50;;;;;;5048936;28;20228;-87
2020/12/12 02:10:39;;;;;;;19.10;13.07;;;1.90;94.40;;;;;;5045955;28;20217;-87
2020/12/12 02:13:06;;;;;;;15.83;12.03;;;1.90;94.40;;;;;;5052399;28;20229;-88
2020/12/12 02:15:34;;;;;;;17.63;12.63;;;1.90;94.40;;;;;;5045722;28;20197;-88
2020/12/12 02:18:01;;;;;;;19.33;12.37;;;1.80;94.40;;;;;;5049240;28;20234;-89
2020/12/12 02:20:28;;;;;;;17.47;12.27;;;1.80;94.70;;;;;;5049370;28;20285;-87
2020/12/12 02:22:55;;;;;;;17.43;12.50;;;1.80;94.90;;;;;;5041918;28;20241;-88
2020/12/12 02:25:22;;;;;;;17.43;12.53;;;1.80;94.90;;;;;;5043601;28;20189;-88
2020/12/12 02:27:50;;;;;;;16.50;12.57;;;1.80;95.00;;;;;;5037557;28;20244;-88
2020/12/12 02:30:17;;;;;;;17.70;12.63;;;1.80;94.80;;;;;;5037876;28;20296;-87
2020/12/12 02:32:43;;;;;;;17.60;12.90;;;1.70;94.80;;;;;;5039786;28;20233;-88
2020/12/12 02:35:10;;;;;;;17.67;12.80;;;1.60;95.00;;;;;;5041614;28;20217;-87
2020/12/12 02:37:36;;;;;;;17.30;12.77;;;1.50;95.40;;;;;;5047367;28;20473;-89
2020/12/12 02:40:04;;;;;;;19.00;13.37;;;1.50;95.60;;;;;;5057977;28;20212;-87
2020/12/12 02:42:30;;;;;;;16.37;12.43;;;1.50;95.60;;;;;;5051789;28;20226;-87
2020/12/12 02:44:57;;;;;;;17.03;12.53;;;1.60;95.50;;;;;;5048200;28;20205;-88
2020/12/12 02:47:23;;;;;;;17.50;12.47;;;1.70;95.20;;;;;;5039206;28;20239;-88
2020/12/12 02:50:09;;;;;;;17.13;12.70;;;1.70;95.10;;;;;;5042458;28;20202;-88
2020/12/12 02:52:36;;;;;;;18.10;12.43;;;1.60;95.00;;;;;;5065123;28;20266;-89
2020/12/12 02:55:04;;;;;;;16.57;11.90;;;1.60;95.00;;;;;;5056333;28;20199;-87
2020/12/12 02:57:31;;;;;;;17.23;12.77;;;1.60;95.10;;;;;;5044465;28;20236;-88
2020/12/12 02:59:57;;;;;;;18.13;12.80;;;1.60;95.10;;;;;;5043791;28;20229;-87
2020/12/12 03:02:23;;;;;;;16.10;11.43;;;1.60;95.20;;;;;;5049723;28;20230;-87
2020/12/12 03:04:50;;;;;;;16.27;12.20;;;1.60;95.30;;;;;;5035800;28;20210;-87
2020/12/12 03:07:16;;;;;;;17.13;12.03;;;1.60;95.10;;;;;;5047084;28;20218;-87
2020/12/12 03:09:42;;;;;;;17.20;12.40;;;1.60;95.10;;;;;;5051294;28;20193;-87
2020/12/12 03:12:10;;;;;;;16.40;11.63;;;1.60;95.10;;;;;;5047463;28;20224;-87
2020/12/12 03:14:36;;;;;;;17.70;12.40;;;1.70;94.70;;;;;;5038309;28;20189;-87
2020/12/12 03:17:03;;;;;;;17.33;12.20;;;1.70;94.50;;;;;;5040650;28;20603;-87
2020/12/12 03:19:29;;;;;;;16.63;11.87;;;1.70;94.70;;;;;;5036455;28;20220;-87
2020/12/12 03:21:55;;;;;;;18.93;13.10;;;1.70;94.40;;;;;;5042571;28;20236;-88
2020/12/12 03:24:22;;;;;;;16.27;11.33;;;1.70;94.40;;;;;;5052746;28;20269;-88
2020/12/12 03:26:50;;;;;;;16.33;11.93;;;1.80;94.40;;;;;;5042961;28;20235;-86
2020/12/12 03:29:17;;;;;;;15.67;11.53;;;1.70;94.40;;;;;;5045157;28;20210;-87
2020/12/12 03:31:44;;;;;;;16.10;11.50;;;1.80;94.40;;;;;;5046459;28;20225;-87
2020/12/12 03:34:10;;;;;;;16.20;11.83;;;1.90;94.40;;;;;;5051925;28;20214;-87
2020/12/12 03:36:36;;;;;;;15.67;11.60;;;2.00;94.40;;;;;;5050037;28;20222;-88
2020/12/12 03:39:03;;;;;;;16.87;12.07;;;2.00;94.10;;;;;;5066767;28;20285;-88
2020/12/12 03:41:29;;;;;;;16.33;11.77;;;2.00;94.40;;;;;;5047645;28;20228;-88
2020/12/12 03:43:56;;;;;;;15.03;11.03;;;2.00;94.40;;;;;;5054680;28;20266;-87
2020/12/12 03:46:23;;;;;;;15.67;11.83;;;2.00;94.10;;;;;;5053443;28;20236;-87
2020/12/12 03:48:50;;;;;;;16.60;12.17;;;1.90;94.40;;;;;;5048267;28;20236;-87
2020/12/12 03:51:16;;;;;;;15.60;11.53;;;1.90;94.30;;;;;;5047623;28;20231;-88
2020/12/12 03:53:43;;;;;;;18.87;13.40;;;2.00;94.30;;;;;;5050685;28;20775;-87
2020/12/12 03:56:09;;;;;;;18.53;13.07;;;2.00;94.10;;;;;;5047399;28;20230;-87
2020/12/12 03:58:36;;;;;;;16.93;11.60;;;1.90;93.80;;;;;;5053369;28;20457;-86
2020/12/12 04:01:02;;;;;;;15.20;11.60;;;2.00;93.70;;;;;;5044392;28;20252;-86
2020/12/12 04:03:30;;;;;;;15.80;11.47;;;1.90;94.00;;;;;;5046977;28;20568;-88
2020/12/12 04:05:56;;;;;;;15.83;11.80;;;1.90;94.30;;;;;;5047011;28;20210;-86
2020/12/12 04:08:22;;;;;;;15.70;11.40;;;1.90;94.20;;;;;;5049627;28;20217;-88
2020/12/12 04:10:49;;;;;;;17.53;11.63;;;1.90;94.20;;;;;;5048804;28;20209;-87
2020/12/12 04:13:15;;;;;;;16.27;12.00;;;2.00;94.10;;;;;;5051395;28;20206;-86
2020/12/12 04:15:42;;;;;;;16.07;11.23;;;2.00;94.10;;;;;;5056840;28;20202;-87
2020/12/12 04:18:08;;;;;;;14.47;11.50;;;2.00;94.00;;;;;;5047625;28;20229;-87
2020/12/12 04:20:36;;;;;;;17.47;11.80;;;1.90;94.10;;;;;;5048214;28;20213;-87
2020/12/12 04:23:02;;;;;;;15.83;11.93;;;2.00;94.30;;;;;;5055530;28;20230;-87
2020/12/12 04:25:28;;;;;;;16.73;12.23;;;1.90;94.40;;;;;;5046957;28;20213;-87
2020/12/12 04:27:55;;;;;;;16.43;11.90;;;1.90;94.40;;;;;;5046672;28;20233;-86
2020/12/12 04:30:21;;;;;;;15.07;11.40;;;1.90;94.20;;;;;;5050340;28;20197;-86
2020/12/12 04:32:48;;;;;;;14.30;10.57;;;1.90;94.40;;;;;;5050791;28;20234;-87
2020/12/12 04:35:14;;;;;;;15.97;11.13;;;2.00;94.30;;;;;;5052878;28;20621;-86
2020/12/12 04:37:42;;;;;;;14.47;11.43;;;2.10;93.80;;;;;;5045070;28;20239;-88
2020/12/12 04:40:10;;;;;;;15.07;11.27;;;2.20;93.90;;;;;;5052254;28;20633;-87
2020/12/12 04:42:37;;;;;;;15.93;11.57;;;2.10;93.90;;;;;;5051086;28;20680;-87
2020/12/12 04:45:04;;;;;;;16.67;11.43;;;2.10;94.00;;;;;;5053012;28;20206;-87
2020/12/12 04:47:31;;;;;;;13.90;10.43;;;2.30;93.80;;;;;;5048977;28;20237;-88
2020/12/12 04:49:57;;;;;;;15.80;11.07;;;2.30;93.50;;;;;;5055805;28;20216;-87
2020/12/12 04:52:24;;;;;;;14.20;11.00;;;2.30;93.40;;;;;;5049101;28;20234;-88
2020/12/12 04:54:52;;;;;;;13.93;10.37;;;2.20;93.60;;;;;;5055641;28;20555;-88
2020/12/12 04:57:18;;;;;;;15.17;11.07;;;2.20;93.60;;;;;;5053301;28;20224;-87
2020/12/12 04:59:45;;;;;;;15.80;11.40;;;2.30;93.70;;;;;;5052859;28;20581;-86
2020/12/12 05:02:13;;;;;;;13.93;10.70;;;2.40;93.70;;;;;;5060029;28;20226;-88
2020/12/12 05:04:40;;;;;;;14.27;11.23;;;2.40;93.40;;;;;;5070083;28;20205;-88
2020/12/12 05:07:07;;;;;;;15.63;11.47;;;2.40;93.40;;;;;;5037833;28;20229;-87
2020/12/12 05:09:33;;;;;;;13.83;11.07;;;2.50;93.30;;;;;;5038107;28;20570;-87
2020/12/12 05:12:02;;;;;;;15.40;11.37;;;2.60;93.10;;;;;;5035907;28;20799;-87
2020/12/12 05:14:28;;;;;;;14.33;10.87;;;2.60;92.80;;;;;;5033930;28;20201;-87
2020/12/12 05:16:57;;;;;;;15.07;11.63;;;2.70;92.80;;;;;;5035168;28;20455;-86
2020/12/12 05:19:23;;;;;;;14.67;11.70;;;2.50;92.50;;;;;;5034173;28;20740;-87
2020/12/12 05:21:51;;;;;;;16.67;11.53;;;2.50;92.90;;;;;;5035593;28;20636;-87
2020/12/12 05:24:19;;;;;;;14.53;11.13;;;2.40;93.10;;;;;;5038523;28;20208;-87
2020/12/12 05:26:46;;;;;;;15.00;11.70;;;2.40;93.10;;;;;;5034946;28;21088;-88
2020/12/12 05:29:14;;;;;;;14.37;11.40;;;2.40;93.00;;;;;;5033960;28;20228;-87
2020/12/12 05:31:41;;;;;;;14.77;11.37;;;2.50;93.10;;;;;;5033958;28;20554;-87
2020/12/12 05:34:12;;;;;;;16.17;11.60;;;2.50;92.90;;;;;;5036564;28;20201;-87
2020/12/12 05:36:40;;;;;;;16.53;12.37;;;2.50;92.80;;;;;;5038343;28;20226;-87
2020/12/12 05:39:09;;;;;;;15.77;11.27;;;2.30;92.90;;;;;;5036836;28;20201;-87
2020/12/12 05:41:36;;;;;;;17.50;12.90;;;2.30;93.30;;;;;;5032730;28;20225;-87
2020/12/12 05:44:02;;;;;;;14.87;11.37;;;2.20;93.60;;;;;;5035061;28;20212;-88
2020/12/12 05:46:30;;;;;;;13.70;11.27;;;2.20;93.50;;;;;;5033700;28;20224;-89
2020/12/12 05:48:57;;;;;;;17.90;12.83;;;2.20;93.80;;;;;;5037273;28;20226;-87
2020/12/12 05:51:23;;;;;;;15.73;11.90;;;2.30;93.90;;;;;;5033389;28;20573;-87
2020/12/12 05:53:50;;;;;;;16.37;12.27;;;2.30;93.60;;;;;;5033757;28;20336;-87
2020/12/12 05:56:16;;;;;;;16.50;12.53;;;2.30;93.50;;;;;;5034806;28;20229;-88
2020/12/12 05:58:46;;;;;;;16.83;12.50;;;2.20;93.40;;;;;;5040534;28;20272;-88
2020/12/12 06:01:17;;;;;;;15.63;11.73;;;2.30;93.50;;;;;;5031530;28;20237;-87
2020/12/12 06:03:52;;;;;;;15.33;11.43;;;2.30;93.60;;;;;;5033476;28;20251;-88
2020/12/12 06:06:23;;;;;;;14.37;11.27;;;2.40;93.20;;;;;;5033107;28;20228;-87
2020/12/12 06:09:01;;;;;;;16.47;12.00;;;2.50;93.20;;;;;;5035555;28;20221;-87
2020/12/12 06:11:30;;;;;;;18.73;12.23;;;2.40;93.10;;;;;;5031994;28;20225;-87
2020/12/12 06:14:02;;;;;;;14.90;12.13;;;2.50;93.40;;;;;;5033258;28;20217;-87
2020/12/12 06:16:30;;;;;;;18.67;11.70;;;2.50;93.40;;;;;;5027137;28;20691;-88
2020/12/12 06:19:14;;;;;;;13.47;11.43;;;2.50;93.40;;;;;;5010827;28;20203;-88
2020/12/12 06:21:42;;;;;;;16.20;11.90;;;2.70;93.20;;;;;;5008813;28;20219;-88
2020/12/12 06:24:10;;;;;;;14.67;11.60;;;2.70;92.80;;;;;;5010424;28;20214;-88
2020/12/12 06:26:55;;;;;;;16.20;12.57;;;2.80;92.80;;;;;;5009332;28;20218;-87
2020/12/12 06:29:23;;;;;;;14.40;10.97;;;2.80;92.60;;;;;;5011524;28;20825;-88
2020/12/12 06:31:50;;;;;;;15.53;11.27;;;2.90;92.60;;;;;;5012241;28;21320;-88
2020/12/12 06:34:17;;;;;;;13.63;11.07;;;3.00;92.40;;;;;;5012763;28;20847;-88
2020/12/12 06:36:48;;;;;;;14.83;11.10;;;2.90;92.40;;;;;;5010163;28;20394;-88
2020/12/12 06:39:19;;;;;;;14.53;11.17;;;3.00;92.40;;;;;;5011726;28;20649;-88
2020/12/12 06:41:46;;;;;;;15.67;11.63;;;2.90;92.20;;;;;;5007227;28;20226;-88
2020/12/12 06:44:29;;;;;;;14.33;11.10;;;2.80;92.70;;;;;;5014008;28;20474;-88
2020/12/12 06:46:56;;;;;;;13.37;10.50;;;2.80;92.70;;;;;;5012408;28;20241;-88
2020/12/12 06:49:23;;;;;;;16.43;11.40;;;2.80;92.70;;;;;;5019774;28;20607;-88
2020/12/12 06:51:50;;;;;;;14.23;11.27;;;2.90;92.40;;;;;;5031089;28;20549;-88
2020/12/12 06:54:17;;;;;;;14.07;10.70;;;2.80;92.40;;;;;;5034213;28;20199;-88
2020/12/12 06:56:43;;;;;;;14.37;11.07;;;2.80;92.70;;;;;;5035343;28;20226;-88
2020/12/12 06:59:30;;;;;;;15.30;11.07;;;2.90;92.70;;;;;;5022980;28;20707;-88
2020/12/12 07:01:58;;;;;;;14.27;10.73;;;3.00;92.40;;;;;;5043226;28;20220;-89
2020/12/12 07:04:27;;;;;;;13.43;10.97;;;3.00;92.30;;;;;;5057236;28;20213;-88
2020/12/12 07:07:07;;;;;;;15.43;11.07;;;2.90;92.30;;;;;;5047468;28;20217;-86
2020/12/12 07:09:36;;;;;;;14.07;10.70;;;2.90;92.50;;;;;;5049564;28;20201;-87
2020/12/12 07:12:02;;;;;;;13.70;10.63;;;3.00;92.60;;;;;;5047251;28;20244;-87
2020/12/12 07:14:29;;;;;;;13.60;10.67;;;3.10;92.70;;;;;;5056722;28;20197;-86
2020/12/12 07:16:58;;;;;;;12.97;10.43;;;3.10;92.30;;;;;;5059199;28;20336;-87
2020/12/12 07:19:32;;;;;;;14.37;10.43;;;3.20;92.20;;;;;;5058769;28;20638;-87
2020/12/12 07:22:00;;;;;;;14.77;10.53;;;3.20;92.10;;;;;;5048378;28;20224;-85
2020/12/12 07:24:26;;;;;;;14.30;10.50;;;3.30;92.00;;;;;;5047197;28;20571;-87
2020/12/12 07:26:53;;;;;;;14.30;10.83;;;3.30;92.00;;;;;;5044295;28;20237;-88
2020/12/12 07:29:19;;;;;;;14.20;10.87;;;3.30;92.00;;;;;;5045953;28;20232;-85
2020/12/12 07:31:46;;;;;;;13.73;10.60;;;3.30;92.00;;;;;;5037946;28;20222;-87
2020/12/12 07:34:17;;;;;;;13.67;10.77;;;3.30;92.00;;;;;;5042351;28;20202;-89
2020/12/12 07:36:45;;;;;;;14.23;10.60;;;3.40;92.10;;;;;;5038793;28;20235;-86
2020/12/12 07:39:11;;;;;;;15.40;11.37;;;3.40;92.20;;;;;;5043020;28;20198;-87
2020/12/12 07:41:44;;;;;;;14.60;10.10;;;3.40;91.90;;;;;;5040415;28;20226;-88
2020/12/12 07:44:11;;;;;;;16.87;10.83;;;3.50;91.60;;;;;;5050633;28;20202;-86
2020/12/12 07:46:40;;;;;;;15.50;10.87;;;3.40;91.60;;;;;;5046308;28;20225;-87
2020/12/12 07:49:07;;;;;;;15.33;10.87;;;3.50;91.70;;;;;;5038630;28;20233;-88
2020/12/12 07:51:35;;;;;;;15.27;12.20;;;3.50;91.40;;;;;;5042777;28;20829;-87
2020/12/12 07:54:12;;;;;;;14.23;10.47;;;3.40;91.60;;;;;;5042485;28;20205;-88
2020/12/12 07:56:49;;;;;;;17.60;11.60;;;3.30;91.80;;;;;;5043224;28;20226;-86
2020/12/12 07:59:19;;;;;;;15.13;11.73;;;3.40;91.80;;;;;;5031489;28;20236;-87
2020/12/12 08:01:46;;;;;;;14.23;10.77;;;3.50;91.60;;;;;;5047988;28;20621;-86
2020/12/12 08:04:18;;;;;;;15.17;11.17;;;3.60;91.50;;;;;;5042463;28;20297;-84
2020/12/12 08:06:45;;;;;;;12.97;10.20;;;3.70;91.50;;;;;;5043959;28;20228;-85
2020/12/12 08:09:12;;;;;;;13.53;10.67;;;3.80;91.50;;;;;;5048391;28;20754;-84
2020/12/12 08:11:40;;;;;;;12.87;9.67;;;3.80;91.10;;;;;;5044751;28;20594;-85
2020/12/12 08:14:06;;;;;;;14.93;10.33;;;3.80;91.20;;;;;;5051697;28;20212;-85
2020/12/12 08:16:39;;;;;;;13.17;9.97;;;3.80;91.10;;;;;;5047585;28;20557;-87
2020/12/12 08:19:06;;;;;;;13.87;10.13;;;3.70;91.20;;;;;;5041695;28;20205;-88
2020/12/12 08:21:32;;;;;;;12.77;10.00;;;3.80;91.30;;;;;;5046137;28;20232;-87
2020/12/12 08:24:00;;;;;;;13.90;10.10;;;3.90;91.20;;;;;;5048948;28;20208;-88
2020/12/12 08:26:28;;;;;;;13.67;10.63;;;4.00;91.20;;;;;;5048277;28;20601;-87
2020/12/12 08:28:59;;;;;;;13.07;10.07;;;4.00;91.00;;;;;;5049161;28;20224;-87
2020/12/12 08:31:26;;;;;;;13.63;10.23;;;3.80;91.10;;;;;;5050526;28;20225;-86
2020/12/12 08:33:55;;;;;;;14.70;10.63;;;3.90;91.10;;;;;;5051524;28;20213;-88
2020/12/12 08:36:24;;;;;;;12.30;9.53;;;4.00;91.10;;;;;;5047569;28;20226;-85
2020/12/12 08:38:54;;;;;;;12.53;9.73;;;4.00;91.10;;;;;;5054629;28;20202;-85
2020/12/12 08:41:21;;;;;;;14.33;10.17;;;3.90;91.20;;;;;;5051371;28;20225;-85
2020/12/12 08:43:48;;;;;;;12.43;9.87;;;3.90;91.10;;;;;;5052813;28;20216;-85
2020/12/12 08:46:16;;;;;;;13.53;10.50;;;4.00;91.20;;;;;;5052911;28;20226;-85
2020/12/12 08:48:43;;;;;;;12.77;9.80;;;4.10;91.20;;;;;;5051478;28;20572;-87
2020/12/12 08:51:10;;;;;;;16.27;10.30;;;4.20;91.10;;;;;;5053431;28;20201;-87
2020/12/12 08:53:38;;;;;;;13.00;10.17;;;4.20;91.40;;;;;;5033098;28;20266;-88
2020/12/12 08:56:07;;;;;;;15.07;10.33;;;4.10;91.70;;;;;;5037896;28;20207;-88
2020/12/12 08:58:35;;;;;;;14.27;10.40;;;4.20;91.80;;;;;;5031831;28;20597;-86
2020/12/12 09:01:19;;;;;;;14.07;10.43;;;4.10;91.80;;;;;;5032965;28;20318;-87
2020/12/12 09:03:56;;;;;;;16.57;11.20;;;4.20;92.00;;;;;;5031951;28;20208;-87
2020/12/12 09:06:25;;;;;;;18.03;11.23;;;4.20;92.00;;;;;;5029406;28;20222;-88
2020/12/12 09:09:12;;;;;;;19.60;11.47;;;4.20;91.80;;;;;;5033485;28;20223;-88
2020/12/12 09:11:39;;;;;;;17.50;11.90;;;4.20;92.10;;;;;;5033183;28;20222;-87
2020/12/12 09:14:07;;;;;;;13.80;10.33;;;4.10;92.20;;;;;;5038154;28;20225;-88
2020/12/12 09:16:37;;;;;;;15.23;11.50;;;4.10;92.20;;;;;;5031572;28;20222;-87
2020/12/12 09:19:05;;;;;;;15.00;10.30;;;4.20;92.10;;;;;;5054397;28;20208;-87
2020/12/12 09:21:32;;;;;;;14.27;10.97;;;4.40;92.00;;;;;;5051515;28;20716;-89
2020/12/12 09:23:59;;;;;;;13.17;10.10;;;4.40;91.60;;;;;;5048323;28;20218;-87
2020/12/12 09:26:25;;;;;;;14.17;9.83;;;4.20;92.10;;;;;;5046587;28;20685;-88
2020/12/12 09:28:52;;;;;;;14.20;10.33;;;4.20;92.10;;;;;;5053252;28;20238;-87
2020/12/12 09:31:20;;;;;;;13.40;9.87;;;4.30;92.20;;;;;;5050815;28;20218;-86
2020/12/12 09:33:47;;;;;;;11.43;9.10;;;4.50;91.90;;;;;;5054484;28;20278;-86
2020/12/12 09:36:14;;;;;;;13.20;9.77;;;4.50;91.80;;;;;;5043607;28;20234;-86
2020/12/12 09:38:40;;;;;;;15.47;9.93;;;4.60;91.50;;;;;;5052563;28;20236;-87
2020/12/12 09:41:07;;;;;;;12.93;9.50;;;4.70;91.50;;;;;;5047828;28;20202;-88
2020/12/12 09:43:33;;;;;;;12.43;9.73;;;4.70;91.30;;;;;;5048023;28;20205;-88
2020/12/12 09:45:59;;;;;;;10.73;8.73;;;4.90;91.20;;;;;;5048992;28;20194;-88
2020/12/12 09:48:26;;;;;;;15.03;9.07;;;4.90;91.00;;;;;;5049105;28;20691;-86
2020/12/12 09:50:54;;;;;;;13.67;9.27;;;5.00;90.80;;;;;;5052743;28;20209;-87
2020/12/12 09:53:20;;;;;;;10.93;8.40;;;4.90;90.80;;;;;;5048410;28;20206;-87
2020/12/12 09:55:47;;;;;;;11.57;9.03;;;5.00;90.90;;;;;;5051139;28;20580;-87
2020/12/12 09:58:13;;;;;;;10.90;9.10;;;5.10;91.00;;;;;;5041813;28;20225;-87
2020/12/12 10:00:41;;;;;;;13.37;8.47;;;5.10;91.00;;;;;;5047848;28;20598;-87
2020/12/12 10:03:08;;;;;;;11.33;8.70;;;5.20;90.80;;;;;;5043475;28;20225;-87
2020/12/12 10:05:35;;;;;;;12.10;9.20;;;5.30;90.80;;;;;;5040677;28;20782;-86
2020/12/12 10:08:04;;;;;;;9.87;7.90;;;5.40;90.80;;;;;;5039830;28;20230;-87
2020/12/12 10:10:31;;;;;;;8.63;6.30;;;5.40;90.90;;;;;;5038796;28;20205;-87
2020/12/12 10:12:57;;;;;;;6.00;5.33;;;5.50;90.20;;;;;;5045505;28;20221;-87
2020/12/12 10:15:25;;;;;;;5.73;4.70;;;5.50;89.40;;;;;;5050185;28;20208;-87
2020/12/12 10:17:52;;;;;;;5.17;4.30;;;5.60;89.40;;;;;;5033796;28;20228;-89
2020/12/12 10:20:20;;;;;;;7.00;4.53;;;5.70;89.40;;;;;;5023574;28;20207;-86
2020/12/12 10:22:46;;;;;;;5.20;4.10;;;5.70;86.40;;;;;;5039210;28;20231;-88
2020/12/12 10:25:14;;;;;;;6.67;4.53;;;5.50;85.50;;;;;;5049459;28;20204;-89
2020/12/12 10:27:40;;;;;;;4.53;4.10;;;5.40;86.80;;;;;;5030075;28;20218;-90
2020/12/12 10:30:09;;;;;;;5.13;4.30;;;5.40;88.70;;;;;;5026815;28;20198;-90
2020/12/12 10:32:36;;;;;;;5.53;4.60;;;5.40;89.20;;;;;;5040166;28;20229;-90
2020/12/12 10:35:03;;;;;;;5.27;4.63;;;5.60;89.40;;;;;;5060228;28;20185;-90
2020/12/12 10:37:30;;;;;;;6.57;4.70;;;5.60;89.40;;;;;;5056085;28;20582;-89
2020/12/12 10:40:02;;;;;;;5.63;4.90;;;5.70;88.40;;;;;;5050823;28;20212;-89
2020/12/12 10:42:30;;;;;;;8.10;6.40;;;5.70;89.40;;;;;;5057319;28;20228;-90
2020/12/12 10:44:56;;;;;;;6.53;5.50;;;5.80;88.20;;;;;;5054805;28;20203;-90
2020/12/12 10:47:23;;;;;;;7.87;5.57;;;5.90;89.50;;;;;;5049158;28;20222;-90
2020/12/12 10:49:55;;;;;;;5.97;4.73;;;6.20;87.00;;;;;;5053071;28;20234;-88
2020/12/12 10:52:22;;;;;;;6.70;5.57;;;5.90;87.30;;;;;;5055144;28;20333;-90
2020/12/12 10:55:22;;;;;;;7.47;4.70;;;6.10;89.60;;;;;;5056637;28;20241;-89
2020/12/12 10:57:49;;;;;;;7.57;4.70;;;6.10;88.10;;;;;;5050943;28;20312;-90
2020/12/12 11:00:23;;;;;;;7.30;5.10;;;6.10;87.30;;;;;;5053054;28;20253;-91
2020/12/12 11:02:49;;;;;;;6.80;5.03;;;6.30;87.70;;;;;;5049253;28;20238;-90
2020/12/12 11:05:15;;;;;;;5.67;5.00;;;6.40;86.50;;;;;;5050671;28;20209;-90
2020/12/12 11:07:42;;;;;;;5.83;4.73;;;6.60;85.90;;;;;;5028325;28;20711;-90
2020/12/12 11:10:11;;;;;;;5.20;4.43;;;6.70;85.10;;;;;;5024303;28;20208;-89
2020/12/12 11:12:38;;;;;;;6.53;4.93;;;6.80;83.90;;;;;;5032859;28;20242;-91
2020/12/12 11:15:18;;;;;;;7.67;4.50;;;6.90;83.40;;;;;;5034419;28;20745;-92
2020/12/12 11:17:45;;;;;;;4.83;3.63;;;7.00;82.20;;;;;;5052331;28;20220;-87
2020/12/12 11:20:11;;;;;;;4.63;3.90;;;7.00;81.40;;;;;;5061848;28;20630;-86
2020/12/12 11:22:40;;;;;;;3.83;3.40;;;7.10;81.60;;;;;;5059635;28;20188;-90
2020/12/12 11:37:34;;;;;;;4.63;3.80;;;7.40;81.60;;;;;;4979090;28;20695;-91
2020/12/12 11:43:54;;;;;;;2.95;2.67;;;7.40;83.30;;;;;;4978987;28;20564;-90
2020/12/12 11:46:30;;;;;;;3.97;3.13;;;7.20;81.50;;;;;;4985801;28;20227;-94
2020/12/12 11:55:05;;;;;;;3.65;2.97;;;7.60;81.10;;;;;;5038997;28;20281;-91
2020/12/12 11:57:32;;;;;;;5.15;4.38;;;7.60;80.40;;;;;;5049170;28;20365;-89
2020/12/12 12:00:03;;;;;;;4.20;3.45;;;7.60;81.00;;;;;;5024745;28;20223;-91
2020/12/12 12:06:00;;;;;;;5.53;3.47;;;7.60;81.20;;;;;;5006315;28;20188;-88
2020/12/12 12:21:03;;;;;;;3.95;3.55;;;7.30;82.50;;;;;;4980666;28;20185;-90
2020/12/12 12:23:29;;;;;;;3.67;3.20;;;7.40;82.00;;;;;;4976575;28;20681;-93
2020/12/12 12:25:56;;;;;;;5.28;3.72;;;7.50;81.40;;;;;;5025401;28;20285;-92
2020/12/12 12:28:24;;;;;;;5.57;3.10;;;7.50;80.80;;;;;;5049105;28;20221;-92
2020/12/12 12:30:50;;;;;;;3.58;3.28;;;7.40;80.90;;;;;;5045947;28;20199;-92
2020/12/12 12:33:16;;;;;;;3.80;3.00;;;7.50;80.90;;;;;;5052986;28;20260;-92
2020/12/12 12:35:43;;;;;;;3.70;3.10;;;7.50;80.40;;;;;;5040382;28;20209;-92
2020/12/12 12:38:09;;;;;;;4.93;2.93;;;7.60;80.80;;;;;;5045996;28;20209;-90
2020/12/12 12:40:43;;;;;;;3.73;3.10;;;7.30;81.80;;;;;;5049206;28;20278;-92
2020/12/12 12:43:09;;;;;;;4.10;3.23;;;7.30;83.10;;;;;;5055841;28;20309;-88
2020/12/12 12:45:45;;;;;;;5.30;3.00;;;7.20;83.50;;;;;;5063020;28;20285;-92
2020/12/12 12:48:11;;;;;;;4.43;3.20;;;7.10;84.30;;;;;;5040547;28;20237;-94
2020/12/12 12:50:37;;;;;;;5.28;3.33;;;7.20;85.00;;;;;;5047779;28;20212;-93
2020/12/12 12:53:06;;;;;;;3.45;2.85;;;7.40;85.50;;;;;;5052318;28;20233;-93
2020/12/12 12:55:53;;;;;;;3.60;2.95;;;7.50;86.20;;;;;;5057466;28;20213;-93
2020/12/12 12:58:19;;;;;;;6.70;2.63;;;7.60;86.30;;;;;;5039459;28;20211;-92
2020/12/12 13:00:55;;;;;;;3.60;1.92;;;7.60;86.70;;;;;;5191107;23;20229;-92
2020/12/12 13:03:30;;;;;;;2.53;1.40;;;7.60;87.20;;;;;;5062399;28;20194;-92
2020/12/12 13:05:56;;;;;;;1.75;1.55;;;7.60;87.50;;;;;;5055291;28;20556;-92
2020/12/12 13:08:23;;;;;;;2.40;1.55;;;7.60;89.20;;;;;;5054960;28;20309;-90
2020/12/12 13:10:49;;;;;;;1.98;1.63;;;7.50;90.20;;;;;;5052604;28;20664;-91
2020/12/12 13:13:16;;;;;;;2.30;1.77;;;7.40;90.10;;;;;;5054260;28;20222;-88
2020/12/12 13:15:43;;;;;;;2.30;2.10;;;7.40;90.10;;;;;;5051735;28;20194;-87
2020/12/12 13:18:41;;;;;;;1.75;1.50;;;7.20;91.10;;;;;;5058476;28;20759;-88
2020/12/12 13:21:10;;;;;;;2.50;2.00;;;7.00;91.40;;;;;;5045358;28;20600;-89
2020/12/12 13:23:37;;;;;;;2.30;1.90;;;7.00;91.90;;;;;;5044372;28;20221;-91